createdAt,value
2023-01-31T00:00:08.755Z,9.17
2023-01-31T00:02:38.748Z,10.07
2023-01-31T00:05:08.223Z,9.40
2023-01-31T00:07:36.438Z,9.00
2023-01-31T00:10:05.728Z,8.83
2023-01-31T00:12:35.036Z,8.63
2023-01-31T00:15:03.789Z,9.83
2023-01-31T00:17:32.373Z,9.70
2023-01-31T00:20:01.938Z,9.87
2023-01-31T00:22:30.159Z,10.10
2023-01-31T00:24:58.753Z,9.13
2023-01-31T00:27:26.995Z,11.63
2023-01-31T00:29:55.285Z,10.03
2023-01-31T00:32:26.060Z,8.97
2023-01-31T00:34:54.696Z,9.63
2023-01-31T00:37:24.469Z,9.60
2023-01-31T00:39:52.804Z,9.40
2023-01-31T00:42:20.948Z,10.53
2023-01-31T00:44:49.354Z,9.20
2023-01-31T00:47:19.702Z,8.93
2023-01-31T00:49:47.936Z,9.33
2023-01-31T00:52:16.351Z,10.40
2023-01-31T00:54:46.041Z,10.03
2023-01-31T00:57:14.289Z,9.60
2023-01-31T00:59:42.666Z,8.80
2023-01-31T01:02:11.091Z,9.83
2023-01-31T01:04:39.292Z,10.23
2023-01-31T01:07:07.549Z,9.67
2023-01-31T01:09:36.331Z,9.97
2023-01-31T01:12:06.458Z,9.30
2023-01-31T01:14:36.378Z,9.60
2023-01-31T01:17:05.164Z,10.37
2023-01-31T01:19:33.723Z,9.53
2023-01-31T01:22:03.869Z,8.97
2023-01-31T01:24:32.159Z,8.67
2023-01-31T01:27:00.486Z,10.07
2023-01-31T01:29:30.163Z,10.27
2023-01-31T01:31:58.722Z,9.80
2023-01-31T01:34:27.067Z,9.03
2023-01-31T01:36:55.318Z,10.07
2023-01-31T01:39:23.800Z,9.47
2023-01-31T01:41:52.635Z,8.97
2023-01-31T01:44:52.211Z,9.03
2023-01-31T01:47:30.368Z,8.73
2023-01-31T01:50:03.040Z,9.50
2023-01-31T01:52:32.816Z,10.07
2023-01-31T01:55:05.572Z,9.47
2023-01-31T01:57:39.021Z,8.70
2023-01-31T02:00:15.974Z,9.20
2023-01-31T02:02:45.419Z,8.43
2023-01-31T02:05:17.212Z,9.37
2023-01-31T02:07:45.566Z,8.50
2023-01-31T02:10:20.895Z,8.53
2023-01-31T02:12:49.085Z,8.57
2023-01-31T02:15:19.170Z,8.70
2023-01-31T02:17:47.813Z,8.83
2023-01-31T02:20:34.406Z,8.67
2023-01-31T02:23:24.180Z,9.53
2023-01-31T02:26:09.981Z,9.43
2023-01-31T02:29:00.967Z,8.10
2023-01-31T02:32:03.059Z,8.53
2023-01-31T02:34:38.446Z,9.57
2023-01-31T02:37:19.243Z,9.60
2023-01-31T02:39:55.446Z,10.47
2023-01-31T02:42:36.086Z,9.90
2023-01-31T02:45:09.983Z,9.30
2023-01-31T02:47:54.034Z,9.70
2023-01-31T02:50:28.594Z,9.97
2023-01-31T02:53:01.135Z,9.90
2023-01-31T02:55:53.772Z,10.40
2023-01-31T02:58:23.364Z,9.77
2023-01-31T03:00:52.924Z,10.47
2023-01-31T03:03:23.909Z,9.70
2023-01-31T03:06:35.827Z,9.10
2023-01-31T03:09:08.564Z,9.47
2023-01-31T03:11:44.696Z,9.43
2023-01-31T03:14:31.354Z,9.27
2023-01-31T03:17:25.208Z,9.20
2023-01-31T03:20:04.997Z,9.83
2023-01-31T03:22:37.168Z,9.90
2023-01-31T03:25:07.963Z,8.30
2023-01-31T03:27:36.745Z,8.93
2023-01-31T03:30:11.317Z,8.20
2023-01-31T03:32:44.891Z,8.87
2023-01-31T03:35:14.182Z,8.63
2023-01-31T03:37:49.275Z,8.90
2023-01-31T03:40:22.624Z,9.20
2023-01-31T03:42:57.584Z,8.20
2023-01-31T03:45:32.574Z,8.43
2023-01-31T03:48:03.560Z,9.20
2023-01-31T03:50:38.818Z,8.50
2023-01-31T03:53:11.420Z,8.53
2023-01-31T03:55:45.337Z,9.13
2023-01-31T03:58:19.753Z,8.83
2023-01-31T04:00:51.450Z,8.70
2023-01-31T04:03:25.499Z,8.43
2023-01-31T04:05:54.311Z,9.33
2023-01-31T04:08:24.209Z,7.93
2023-01-31T04:10:52.805Z,8.20
2023-01-31T04:13:22.262Z,9.20
2023-01-31T04:15:50.542Z,8.80
2023-01-31T04:18:18.820Z,8.90
2023-01-31T04:20:47.366Z,8.20
2023-01-31T04:23:15.567Z,8.63
2023-01-31T04:25:45.184Z,8.40
2023-01-31T04:28:13.712Z,8.23
2023-01-31T04:30:41.923Z,7.83
2023-01-31T04:33:10.556Z,8.80
2023-01-31T04:35:41.536Z,8.33
2023-01-31T04:38:10.072Z,8.10
2023-01-31T04:40:38.307Z,9.23
2023-01-31T04:43:08.255Z,8.50
2023-01-31T04:45:36.614Z,7.97
2023-01-31T04:48:05.183Z,9.00
2023-01-31T04:50:33.719Z,8.90
2023-01-31T04:53:01.917Z,8.20
2023-01-31T04:55:30.114Z,8.90
2023-01-31T04:57:58.507Z,8.27
2023-01-31T05:00:28.565Z,8.17
2023-01-31T05:03:12.624Z,8.10
2023-01-31T05:05:41.178Z,8.80
2023-01-31T05:08:09.513Z,9.23
2023-01-31T05:10:38.266Z,7.80
2023-01-31T05:13:06.918Z,8.50
2023-01-31T05:15:38.357Z,8.40
2023-01-31T05:18:07.255Z,8.63
2023-01-31T05:20:39.947Z,9.47
2023-01-31T05:23:09.069Z,9.00
2023-01-31T05:25:38.352Z,8.77
2023-01-31T05:28:06.933Z,8.93
2023-01-31T05:30:37.596Z,8.43
2023-01-31T05:33:06.375Z,8.90
2023-01-31T05:35:34.992Z,8.87
2023-01-31T05:38:03.683Z,10.33
2023-01-31T05:40:32.315Z,10.00
2023-01-31T05:43:02.128Z,9.90
2023-01-31T05:45:31.316Z,9.60
2023-01-31T05:48:01.327Z,8.97
2023-01-31T05:50:29.511Z,9.90
2023-01-31T05:53:03.567Z,9.33
2023-01-31T05:55:32.324Z,8.90
2023-01-31T05:58:01.551Z,8.97
2023-01-31T06:00:30.575Z,9.40
2023-01-31T06:03:01.271Z,9.50
2023-01-31T06:05:29.498Z,8.47
2023-01-31T06:07:58.034Z,9.07
2023-01-31T06:10:27.279Z,8.40
2023-01-31T06:12:55.472Z,8.63
2023-01-31T06:15:23.781Z,9.00
2023-01-31T06:17:52.203Z,8.83
2023-01-31T06:20:21.750Z,8.90
2023-01-31T06:22:50.189Z,9.27
2023-01-31T06:25:19.274Z,9.30
2023-01-31T06:27:47.672Z,8.47
2023-01-31T06:30:16.385Z,8.97
2023-01-31T06:32:44.802Z,8.43
2023-01-31T06:35:13.317Z,8.73
2023-01-31T06:37:43.004Z,9.47
2023-01-31T06:40:12.576Z,8.60
2023-01-31T06:42:40.742Z,9.20
2023-01-31T06:45:10.481Z,9.60
2023-01-31T06:47:38.783Z,9.13
2023-01-31T06:50:07.939Z,8.53
2023-01-31T06:52:36.242Z,8.53
2023-01-31T06:55:06.696Z,9.00
2023-01-31T06:57:34.922Z,7.77
2023-01-31T07:00:03.651Z,7.50
2023-01-31T07:02:32.587Z,8.30
2023-01-31T07:05:00.971Z,8.70
2023-01-31T07:07:29.329Z,8.60
2023-01-31T07:09:57.978Z,8.13
2023-01-31T07:12:28.102Z,7.67
2023-01-31T07:14:56.680Z,8.03
2023-01-31T07:17:25.016Z,8.00
2023-01-31T07:19:53.280Z,7.70
2023-01-31T07:22:21.797Z,8.07
2023-01-31T07:24:51.103Z,7.60
2023-01-31T07:27:19.735Z,8.13
2023-01-31T07:29:49.410Z,7.87
2023-01-31T07:32:17.980Z,7.80
2023-01-31T07:34:46.734Z,8.10
2023-01-31T07:37:15.031Z,7.37
2023-01-31T07:39:43.334Z,8.37
2023-01-31T07:42:11.684Z,7.60
2023-01-31T07:44:41.783Z,7.03
2023-01-31T07:47:11.647Z,7.03
2023-01-31T07:49:39.861Z,7.03
2023-01-31T07:52:08.612Z,7.93
2023-01-31T07:54:37.758Z,7.30
2023-01-31T07:57:06.019Z,7.53
2023-01-31T07:59:34.219Z,7.00
2023-01-31T08:02:20.236Z,6.30
2023-01-31T08:04:52.969Z,6.63
2023-01-31T08:07:21.594Z,6.57
2023-01-31T08:09:50.471Z,6.27
2023-01-31T08:12:18.664Z,6.47
2023-01-31T08:14:47.643Z,5.33
2023-01-31T08:17:16.270Z,6.13
2023-01-31T08:19:44.936Z,5.60
2023-01-31T08:22:14.758Z,5.60
2023-01-31T08:24:45.374Z,5.33
2023-01-31T08:27:16.528Z,5.37
2023-01-31T08:29:45.105Z,6.20
2023-01-31T08:32:13.422Z,5.93
2023-01-31T08:34:43.528Z,5.57
2023-01-31T08:37:12.032Z,5.83
2023-01-31T08:39:43.584Z,5.33
2023-01-31T08:42:12.126Z,5.40
2023-01-31T08:44:40.316Z,5.67
2023-01-31T08:47:08.531Z,4.67
2023-01-31T08:49:37.371Z,5.00
2023-01-31T08:52:06.062Z,5.57
2023-01-31T08:54:34.239Z,5.30
2023-01-31T08:57:03.979Z,5.73
2023-01-31T08:59:32.693Z,5.40
2023-01-31T09:02:00.992Z,6.20
2023-01-31T09:04:31.310Z,6.17
2023-01-31T09:06:59.518Z,5.53
2023-01-31T09:09:29.159Z,5.57
2023-01-31T09:11:58.649Z,6.00
2023-01-31T09:14:29.051Z,5.77
2023-01-31T09:16:57.244Z,6.03
2023-01-31T09:19:25.847Z,5.43
2023-01-31T09:21:54.046Z,6.00
2023-01-31T09:24:22.678Z,5.10
2023-01-31T09:26:51.437Z,5.73
2023-01-31T09:29:19.633Z,5.77
2023-01-31T09:31:53.091Z,5.67
2023-01-31T09:34:22.177Z,5.20
2023-01-31T09:36:50.456Z,5.03
2023-01-31T09:39:18.947Z,5.53
2023-01-31T09:41:51.981Z,5.33
2023-01-31T09:44:24.986Z,5.57
2023-01-31T09:47:00.540Z,5.83
2023-01-31T09:49:33.183Z,5.23
2023-01-31T09:52:03.728Z,5.40
2023-01-31T09:54:36.599Z,5.63
2023-01-31T09:57:20.393Z,4.77
2023-01-31T09:59:54.007Z,5.70
2023-01-31T10:02:43.500Z,5.30
2023-01-31T10:05:22.701Z,5.27
2023-01-31T10:08:01.593Z,5.50
2023-01-31T10:10:35.374Z,5.37
2023-01-31T10:13:10.510Z,5.33
2023-01-31T10:15:44.669Z,4.63
2023-01-31T10:18:18.917Z,5.50
2023-01-31T10:20:51.805Z,4.97
2023-01-31T10:23:26.555Z,5.47
2023-01-31T10:26:00.796Z,5.20
2023-01-31T10:28:36.538Z,5.37
2023-01-31T10:31:09.736Z,5.20
2023-01-31T10:33:45.195Z,5.40
2023-01-31T10:36:26.244Z,4.53
2023-01-31T10:39:01.600Z,4.60
2023-01-31T10:41:42.695Z,5.40
2023-01-31T10:44:21.504Z,4.43
2023-01-31T10:46:50.551Z,4.93
2023-01-31T10:49:25.232Z,5.17
2023-01-31T10:52:17.200Z,4.20
2023-01-31T10:55:01.667Z,4.17
2023-01-31T10:57:30.522Z,4.57
2023-01-31T10:59:58.821Z,4.70
2023-01-31T11:02:29.326Z,4.83
2023-01-31T11:05:00.758Z,4.53
2023-01-31T11:07:30.837Z,4.47
2023-01-31T11:09:59.451Z,4.70
2023-01-31T11:12:42.792Z,4.33
2023-01-31T11:15:18.203Z,5.17
2023-01-31T11:17:48.604Z,4.77
2023-01-31T11:20:28.307Z,5.47
2023-01-31T11:22:59.013Z,5.50
2023-01-31T11:25:29.666Z,4.83
2023-01-31T11:28:01.047Z,4.67
2023-01-31T11:30:32.233Z,4.20
2023-01-31T11:33:00.698Z,4.03
2023-01-31T11:35:32.984Z,4.73
2023-01-31T11:38:04.106Z,4.57
2023-01-31T11:40:35.037Z,4.37
2023-01-31T11:43:04.856Z,4.43
2023-01-31T11:45:34.622Z,5.07
2023-01-31T11:48:12.399Z,4.13
2023-01-31T11:50:44.579Z,5.13
2023-01-31T11:53:20.512Z,4.53
2023-01-31T11:55:51.074Z,5.03
2023-01-31T11:58:22.377Z,4.47
2023-01-31T12:01:00.140Z,4.73
2023-01-31T12:03:29.442Z,4.93
2023-01-31T12:06:04.501Z,4.53
2023-01-31T12:08:36.130Z,5.67
2023-01-31T12:11:07.012Z,5.33
2023-01-31T12:13:48.750Z,5.97
2023-01-31T12:16:20.373Z,5.80
2023-01-31T12:19:01.966Z,5.70
2023-01-31T12:21:43.844Z,5.40
2023-01-31T12:24:25.679Z,5.93
2023-01-31T12:26:57.018Z,5.27
2023-01-31T12:29:50.728Z,5.50
2023-01-31T12:32:33.312Z,5.40
2023-01-31T12:35:25.083Z,5.67
2023-01-31T12:38:05.337Z,5.77
2023-01-31T12:40:41.300Z,5.60
2023-01-31T12:43:26.146Z,6.00
2023-01-31T12:46:10.503Z,5.03
2023-01-31T12:49:29.014Z,4.57
2023-01-31T12:52:06.360Z,4.30
2023-01-31T12:54:50.696Z,4.00
2023-01-31T12:57:31.750Z,3.73
2023-01-31T13:00:13.155Z,4.93
2023-01-31T13:02:50.355Z,4.47
2023-01-31T13:05:28.903Z,4.40
2023-01-31T13:08:03.749Z,4.40
2023-01-31T13:10:38.966Z,4.57
2023-01-31T13:13:16.409Z,4.00
2023-01-31T13:15:50.241Z,4.87
2023-01-31T13:18:19.843Z,4.57
2023-01-31T13:20:52.515Z,4.67
2023-01-31T13:23:30.015Z,5.03
2023-01-31T13:26:06.524Z,4.87
2023-01-31T13:28:41.691Z,4.73
2023-01-31T13:31:17.015Z,5.40
2023-01-31T13:33:50.925Z,5.23
2023-01-31T13:36:26.884Z,5.20
2023-01-31T13:38:55.619Z,4.70
2023-01-31T13:41:29.379Z,5.30
2023-01-31T13:43:59.484Z,4.70
2023-01-31T13:46:33.198Z,4.60
2023-01-31T13:49:06.376Z,4.50
2023-01-31T13:51:39.270Z,4.90
2023-01-31T13:54:15.323Z,5.20
2023-01-31T13:56:51.866Z,5.07
2023-01-31T13:59:23.932Z,5.20
2023-01-31T14:01:53.478Z,4.50
2023-01-31T14:04:34.111Z,4.77
2023-01-31T14:07:24.198Z,4.47
2023-01-31T14:10:29.903Z,4.43
2023-01-31T14:13:27.578Z,4.13
2023-01-31T14:15:58.196Z,4.23
2023-01-31T14:18:38.089Z,4.27
2023-01-31T14:21:55.437Z,4.40
2023-01-31T14:25:06.298Z,4.13
2023-01-31T14:28:02.711Z,4.00
2023-01-31T14:30:38.378Z,4.00
2023-01-31T14:33:15.139Z,3.63
2023-01-31T14:36:08.620Z,3.60
2023-01-31T14:38:53.470Z,3.80
2023-01-31T14:41:32.104Z,3.70
2023-01-31T14:44:12.125Z,3.70
2023-01-31T14:47:10.367Z,3.80
2023-01-31T14:50:07.934Z,4.33
2023-01-31T14:52:54.402Z,3.80
2023-01-31T14:55:32.954Z,4.13
2023-01-31T14:58:02.961Z,4.20
2023-01-31T15:00:34.270Z,3.90
2023-01-31T15:03:09.016Z,3.63
2023-01-31T15:05:47.507Z,3.90
2023-01-31T15:08:49.537Z,3.50
2023-01-31T15:11:42.897Z,4.10
2023-01-31T15:14:35.893Z,4.10
2023-01-31T15:17:14.884Z,3.87
2023-01-31T15:19:54.121Z,4.10
2023-01-31T15:22:24.279Z,4.13
2023-01-31T15:24:57.016Z,4.10
2023-01-31T15:27:28.882Z,3.87
2023-01-31T15:30:05.445Z,3.80
2023-01-31T15:32:40.786Z,4.00
2023-01-31T15:35:20.230Z,3.80
2023-01-31T15:37:54.694Z,4.30
2023-01-31T15:40:25.882Z,4.00
2023-01-31T15:42:54.246Z,4.03
2023-01-31T15:45:24.482Z,4.20
2023-01-31T15:48:00.563Z,4.20
2023-01-31T15:50:32.877Z,4.53
2023-01-31T15:53:04.823Z,4.37
2023-01-31T15:55:35.944Z,4.43
2023-01-31T15:58:06.955Z,4.30
2023-01-31T16:00:37.838Z,4.30
2023-01-31T16:03:08.363Z,4.30
2023-01-31T16:05:40.404Z,4.37
2023-01-31T16:08:20.841Z,4.00
2023-01-31T16:10:50.798Z,3.87
2023-01-31T16:13:20.000Z,4.60
2023-01-31T16:15:49.199Z,4.10
2023-01-31T16:18:18.728Z,4.17
2023-01-31T16:20:50.272Z,4.90
2023-01-31T16:23:31.441Z,4.50
2023-01-31T16:26:04.631Z,4.10
2023-01-31T16:28:39.363Z,4.50
2023-01-31T16:31:10.155Z,4.70
2023-01-31T16:33:40.542Z,4.97
2023-01-31T16:36:17.370Z,4.80
2023-01-31T16:38:58.276Z,4.53
2023-01-31T16:41:43.836Z,4.60
2023-01-31T16:44:18.488Z,5.23
2023-01-31T16:46:48.306Z,6.97
2023-01-31T16:49:21.345Z,5.10
2023-01-31T16:51:52.859Z,4.30
2023-01-31T16:54:23.856Z,4.93
2023-01-31T16:57:21.417Z,4.90
2023-01-31T16:59:51.377Z,5.20
2023-01-31T17:02:23.891Z,4.53
2023-01-31T17:04:56.305Z,4.90
2023-01-31T17:07:30.200Z,5.30
2023-01-31T17:10:01.042Z,5.10
2023-01-31T17:12:32.004Z,5.27
2023-01-31T17:15:03.346Z,5.10
2023-01-31T17:17:37.091Z,4.80
2023-01-31T17:20:06.088Z,4.90
2023-01-31T17:22:35.858Z,4.97
2023-01-31T17:25:04.063Z,5.47
2023-01-31T17:27:32.249Z,5.40
2023-01-31T17:30:00.784Z,4.97
2023-01-31T17:32:30.910Z,5.80
2023-01-31T17:35:00.369Z,4.73
2023-01-31T17:37:32.014Z,4.93
2023-01-31T17:40:02.609Z,5.37
2023-01-31T17:42:30.967Z,5.67
2023-01-31T17:44:59.116Z,5.20
2023-01-31T17:47:27.959Z,5.03
2023-01-31T17:49:57.399Z,5.30
2023-01-31T17:52:25.829Z,5.23
2023-01-31T17:54:54.078Z,5.13
2023-01-31T17:57:23.785Z,5.77
2023-01-31T17:59:52.280Z,6.43
2023-01-31T18:02:20.519Z,6.53
2023-01-31T18:04:48.917Z,5.80
2023-01-31T18:07:17.762Z,6.00
2023-01-31T18:09:46.031Z,6.03
2023-01-31T18:12:15.514Z,6.00
2023-01-31T18:14:45.079Z,5.70
2023-01-31T18:17:13.558Z,5.63
2023-01-31T18:19:41.973Z,6.30
2023-01-31T18:22:10.169Z,6.30
2023-01-31T18:24:38.622Z,7.00
2023-01-31T18:27:06.899Z,6.30
2023-01-31T18:29:35.101Z,6.47
2023-01-31T18:32:08.046Z,7.07
2023-01-31T18:34:36.921Z,6.53
2023-01-31T18:37:10.898Z,6.70
2023-01-31T18:39:39.202Z,6.97
2023-01-31T18:42:10.090Z,6.90
2023-01-31T18:44:38.467Z,7.63
2023-01-31T18:47:08.423Z,7.67
2023-01-31T18:49:36.810Z,6.97
2023-01-31T18:52:06.902Z,8.10
2023-01-31T18:54:35.505Z,6.90
2023-01-31T18:57:03.722Z,7.20
2023-01-31T18:59:32.186Z,7.73
2023-01-31T19:02:00.582Z,7.70
2023-01-31T19:04:30.257Z,9.13
2023-01-31T19:06:58.824Z,7.97
2023-01-31T19:09:28.662Z,8.67
2023-01-31T19:11:56.867Z,9.00
2023-01-31T19:14:25.401Z,8.07
2023-01-31T19:16:54.171Z,8.23
2023-01-31T19:19:22.311Z,8.17
2023-01-31T19:21:51.910Z,8.40
2023-01-31T19:24:20.978Z,8.90
2023-01-31T19:26:49.237Z,10.03
2023-01-31T19:29:18.246Z,10.50
2023-01-31T19:31:46.848Z,10.67
2023-01-31T19:34:15.105Z,10.53
2023-01-31T19:36:44.888Z,10.63
2023-01-31T19:39:14.751Z,10.43
2023-01-31T19:41:43.484Z,10.40
2023-01-31T19:44:12.373Z,10.77
2023-01-31T19:46:40.655Z,11.40
2023-01-31T19:49:08.939Z,11.20
2023-01-31T19:51:38.121Z,10.80
2023-01-31T19:54:07.003Z,10.33
2023-01-31T19:56:38.412Z,10.67
2023-01-31T19:59:07.032Z,10.20
2023-01-31T20:01:35.683Z,11.17
2023-01-31T20:04:03.968Z,11.37
2023-01-31T20:06:34.702Z,11.70
2023-01-31T20:09:06.181Z,11.33
2023-01-31T20:11:36.859Z,11.73
2023-01-31T20:14:06.883Z,13.00
2023-01-31T20:16:35.490Z,13.07
2023-01-31T20:19:03.837Z,12.37
2023-01-31T20:21:32.440Z,12.77
2023-01-31T20:24:00.930Z,13.57
2023-01-31T20:26:29.847Z,13.30
2023-01-31T20:28:59.989Z,12.73
2023-01-31T20:31:28.486Z,12.80
2023-01-31T20:33:56.747Z,12.93
2023-01-31T20:36:25.030Z,12.93
2023-01-31T20:38:53.263Z,12.33
2023-01-31T20:41:22.520Z,13.80
2023-01-31T20:43:53.839Z,13.40
2023-01-31T20:46:23.683Z,12.13
2023-01-31T20:48:52.985Z,11.90
2023-01-31T20:51:21.229Z,12.23
2023-01-31T20:53:49.544Z,11.27
2023-01-31T20:56:17.868Z,11.73
2023-01-31T20:58:46.167Z,11.63
2023-01-31T21:01:14.525Z,11.03
2023-01-31T21:03:45.260Z,11.73
2023-01-31T21:06:13.557Z,11.90
2023-01-31T21:08:41.960Z,12.03
2023-01-31T21:11:12.644Z,11.33
2023-01-31T21:13:43.341Z,11.53
2023-01-31T21:16:15.634Z,12.80
2023-01-31T21:18:45.374Z,12.10
2023-01-31T21:21:22.713Z,11.43
2023-01-31T21:23:52.559Z,11.60
2023-01-31T21:26:22.066Z,11.87
2023-01-31T21:28:50.566Z,12.70
2023-01-31T21:31:21.026Z,11.47
2023-01-31T21:33:51.892Z,13.17
2023-01-31T21:36:22.495Z,12.73
2023-01-31T21:38:52.267Z,12.37
2023-01-31T21:41:38.345Z,10.63
2023-01-31T21:44:07.263Z,10.97
2023-01-31T21:46:36.109Z,11.77
2023-01-31T21:49:05.952Z,12.07
2023-01-31T21:51:34.266Z,13.20
2023-01-31T21:54:02.689Z,13.97
2023-01-31T21:56:30.931Z,15.27
2023-01-31T21:58:59.762Z,15.20
2023-01-31T22:01:30.203Z,15.47
2023-01-31T22:03:59.189Z,17.17
2023-01-31T22:06:31.785Z,15.73
2023-01-31T22:09:02.171Z,16.23
2023-01-31T22:11:33.222Z,16.23
2023-01-31T22:14:03.100Z,16.40
2023-01-31T22:16:31.966Z,15.73
2023-01-31T22:19:01.237Z,15.43
2023-01-31T22:21:32.481Z,16.33
2023-01-31T22:24:03.281Z,16.00
2023-01-31T22:26:33.672Z,15.67
2023-01-31T22:29:04.677Z,14.57
2023-01-31T22:31:33.791Z,14.43
2023-01-31T22:34:03.620Z,14.97
2023-01-31T22:36:36.362Z,14.97
2023-01-31T22:39:04.832Z,14.37
2023-01-31T22:41:33.543Z,14.17
2023-01-31T22:44:01.872Z,13.67
2023-01-31T22:46:31.302Z,14.30
2023-01-31T22:48:59.841Z,13.47
2023-01-31T22:51:30.041Z,14.33
2023-01-31T22:54:00.575Z,13.50
2023-01-31T22:56:31.664Z,14.77
2023-01-31T22:59:02.038Z,14.10
2023-01-31T23:01:32.822Z,14.33
2023-01-31T23:04:02.974Z,13.97
2023-01-31T23:06:31.482Z,14.13
2023-01-31T23:09:01.148Z,15.37
2023-01-31T23:11:29.587Z,14.57
2023-01-31T23:13:57.943Z,14.20
2023-01-31T23:16:47.876Z,13.70
2023-01-31T23:19:17.074Z,13.27
2023-01-31T23:21:48.970Z,13.57
2023-01-31T23:24:19.068Z,11.73
2023-01-31T23:26:47.712Z,12.20
2023-01-31T23:29:16.260Z,12.83
2023-01-31T23:31:44.717Z,11.27
2023-01-31T23:34:13.022Z,11.03
2023-01-31T23:36:41.408Z,10.23
2023-01-31T23:39:11.076Z,10.20
2023-01-31T23:41:40.651Z,10.80
2023-01-31T23:44:09.065Z,9.93
2023-01-31T23:46:37.645Z,9.97
2023-01-31T23:49:06.004Z,10.13
2023-01-31T23:51:34.409Z,8.70
2023-01-31T23:54:02.856Z,8.90
2023-01-31T23:56:31.140Z,8.40
2023-01-31T23:59:01.269Z,8.30
